Time;durP1;ratioP1;P1;durP2;ratioP2;P2;SDS_P1;SDS_P2;PMS_P1;PMS_P2;Temp;Humidity;BMP_temperature;BMP_pressure;BME280_temperature;BME280_humidity;BME280_pressure;Samples;Min_cycle;Max_cycle;Signal;HPM_P1;HPM_P2
2023/10/05 00:02:04;;;;;;;16.10;5.65;;;11.50;99.90;;;;;;4993683;28;20068;-45
2023/10/05 00:04:32;;;;;;;19.30;6.15;;;11.50;99.90;;;;;;4993431;28;20368;-48
2023/10/05 00:06:57;;;;;;;13.98;5.38;;;11.50;99.90;;;;;;4993733;28;20050;-46
2023/10/05 00:09:24;;;;;;;15.45;6.15;;;11.50;99.90;;;;;;4993648;28;20069;-47
2023/10/05 00:11:54;;;;;;;15.60;5.65;;;11.50;99.90;;;;;;4993506;28;20565;-45
2023/10/05 00:14:19;;;;;;;14.93;6.20;;;11.50;99.90;;;;;;4993430;28;20022;-48
2023/10/05 00:16:47;;;;;;;15.77;5.57;;;11.50;99.90;;;;;;4993141;28;20076;-49
2023/10/05 00:19:15;;;;;;;18.55;5.30;;;11.50;99.90;;;;;;4993591;28;20033;-51
2023/10/05 00:22:01;;;;;;;14.50;5.50;;;11.50;99.90;;;;;;4993461;28;20023;-47
2023/10/05 00:24:34;;;;;;;15.77;5.43;;;11.50;99.90;;;;;;4992991;28;20033;-45
2023/10/05 00:27:02;;;;;;;12.88;6.00;;;11.50;99.90;;;;;;4993298;28;20180;-46
2023/10/05 00:29:29;;;;;;;15.27;5.95;;;11.50;99.90;;;;;;4993336;28;20033;-46
2023/10/05 00:31:59;;;;;;;9.93;5.65;;;11.50;99.90;;;;;;4993064;28;20027;-50
2023/10/05 00:34:29;;;;;;;11.10;5.97;;;11.50;99.90;;;;;;4992733;28;20528;-47
2023/10/05 00:36:59;;;;;;;17.33;6.78;;;11.40;99.90;;;;;;4993176;28;20026;-46
2023/10/05 00:39:25;;;;;;;16.10;7.50;;;11.30;99.90;;;;;;4992827;28;20406;-45
2023/10/05 00:44:34;;;;;;;13.82;7.30;;;11.20;99.90;;;;;;4992793;28;20030;-46
2023/10/05 00:47:01;;;;;;;12.40;6.63;;;11.10;99.90;;;;;;4993245;28;20022;-46
2023/10/05 00:49:37;;;;;;;21.48;8.13;;;11.00;99.90;;;;;;4991917;28;20116;-46
2023/10/05 00:52:15;;;;;;;17.73;8.38;;;11.10;99.90;;;;;;4993255;28;20038;-46
2023/10/05 00:54:56;;;;;;;20.77;8.43;;;11.00;99.90;;;;;;4992012;28;20033;-51
2023/10/05 00:57:24;;;;;;;19.67;7.80;;;11.00;99.90;;;;;;4993681;28;20521;-48
2023/10/05 01:00:15;;;;;;;16.30;8.52;;;11.00;99.90;;;;;;4995404;28;20026;-47
2023/10/05 01:03:04;;;;;;;17.13;8.40;;;11.00;99.90;;;;;;4995908;28;20565;-48
2023/10/05 01:05:35;;;;;;;14.40;8.52;;;10.90;99.90;;;;;;4993058;28;20081;-46
2023/10/05 01:08:04;;;;;;;17.60;8.77;;;10.90;99.90;;;;;;4993123;28;20026;-46
2023/10/05 01:10:43;;;;;;;21.55;9.15;;;10.80;99.90;;;;;;4992656;28;20030;-47
2023/10/05 01:13:29;;;;;;;16.67;8.30;;;10.80;99.90;;;;;;4992660;28;20027;-47
2023/10/05 01:15:55;;;;;;;19.60;8.40;;;10.80;99.90;;;;;;4992368;28;20367;-47
2023/10/05 01:18:25;;;;;;;17.13;8.35;;;10.80;99.90;;;;;;4992553;28;20073;-50
2023/10/05 01:20:51;;;;;;;15.95;8.07;;;10.80;99.90;;;;;;4992741;28;20018;-49
2023/10/05 01:23:18;;;;;;;56.55;26.83;;;10.70;99.90;;;;;;4992278;28;20030;-47
2023/10/05 01:25:44;;;;;;;26.35;9.75;;;10.70;99.90;;;;;;4992257;28;20054;-47
2023/10/05 01:28:09;;;;;;;31.38;17.00;;;10.70;99.90;;;;;;4990907;28;20065;-48
2023/10/05 01:30:38;;;;;;;16.63;8.95;;;10.70;99.90;;;;;;4992156;28;20026;-49
2023/10/05 01:33:04;;;;;;;20.70;8.73;;;10.70;99.90;;;;;;4992018;28;20030;-47
2023/10/05 01:35:29;;;;;;;23.65;9.55;;;10.70;99.90;;;;;;4992016;28;20427;-47
2023/10/05 01:37:57;;;;;;;19.50;9.10;;;10.70;99.90;;;;;;4992296;28;20101;-51
2023/10/05 01:40:25;;;;;;;17.30;8.63;;;10.70;99.90;;;;;;4991860;28;20096;-50
2023/10/05 01:42:52;;;;;;;22.27;9.15;;;10.70;99.90;;;;;;4992087;28;20030;-48
2023/10/05 01:45:34;;;;;;;16.20;8.93;;;10.70;99.90;;;;;;4992160;28;20026;-48
2023/10/05 01:48:05;;;;;;;18.65;9.55;;;10.70;99.90;;;;;;4990878;28;20129;-46
2023/10/05 01:50:32;;;;;;;20.75;9.65;;;10.70;99.90;;;;;;4993851;28;20022;-50
2023/10/05 01:55:36;;;;;;;21.75;9.38;;;10.80;99.90;;;;;;4995893;28;20419;-45
2023/10/05 01:58:06;;;;;;;23.73;9.82;;;10.80;99.90;;;;;;4995977;28;20026;-48
2023/10/05 02:00:37;;;;;;;16.77;8.73;;;10.80;99.90;;;;;;4996023;28;20398;-50
2023/10/05 02:03:09;;;;;;;16.45;8.95;;;10.80;99.90;;;;;;4995898;28;20033;-46
2023/10/05 02:05:36;;;;;;;18.05;9.13;;;10.80;99.90;;;;;;4995572;28;20026;-47
2023/10/05 02:08:02;;;;;;;20.67;9.55;;;10.80;99.90;;;;;;4995877;28;20080;-47
2023/10/05 02:10:32;;;;;;;20.00;10.13;;;10.80;99.90;;;;;;4995540;28;20125;-47
2023/10/05 02:13:00;;;;;;;18.67;8.95;;;10.80;99.90;;;;;;4995867;28;20018;-51
2023/10/05 02:15:29;;;;;;;16.90;10.25;;;10.80;99.90;;;;;;4995517;28;20057;-48
2023/10/05 02:17:58;;;;;;;16.55;9.68;;;10.80;99.90;;;;;;4995543;28;20471;-47
2023/10/05 02:22:58;;;;;;;17.55;9.35;;;10.80;99.90;;;;;;4995675;28;20113;-44
2023/10/05 02:25:33;;;;;;;14.98;8.15;;;10.80;99.90;;;;;;4995240;28;20580;-46
2023/10/05 02:28:00;;;;;;;18.83;9.75;;;10.80;99.90;;;;;;4995586;28;20065;-48
2023/10/05 02:30:31;;;;;;;16.95;8.65;;;10.80;99.90;;;;;;4995255;28;20508;-50
2023/10/05 02:33:02;;;;;;;17.23;9.10;;;10.80;99.90;;;;;;4995311;28;20033;-46
2023/10/05 02:35:33;;;;;;;17.02;8.68;;;10.80;99.90;;;;;;4995171;28;20478;-47
2023/10/05 02:37:59;;;;;;;28.67;10.40;;;10.80;99.90;;;;;;4995388;28;20026;-49
2023/10/05 02:40:45;;;;;;;23.45;8.90;;;10.80;99.90;;;;;;4994836;28;20058;-47
2023/10/05 02:43:14;;;;;;;26.45;9.13;;;10.80;99.90;;;;;;4995210;28;20153;-47
2023/10/05 02:45:40;;;;;;;20.17;9.65;;;10.80;99.90;;;;;;4995024;28;20044;-50
2023/10/05 02:48:06;;;;;;;21.77;8.85;;;10.70;99.90;;;;;;4995162;28;20097;-48
2023/10/05 02:50:37;;;;;;;17.67;7.95;;;10.70;99.90;;;;;;4993645;28;20034;-49
2023/10/05 02:53:06;;;;;;;20.05;9.40;;;10.70;99.90;;;;;;4994812;28;20464;-51
2023/10/05 02:55:36;;;;;;;22.67;9.18;;;10.70;99.90;;;;;;4993553;28;20032;-52
2023/10/05 02:58:05;;;;;;;16.90;8.52;;;10.80;99.90;;;;;;4993773;28;20109;-47
2023/10/05 03:00:33;;;;;;;18.75;8.93;;;10.80;99.90;;;;;;4994736;28;20097;-46
2023/10/05 03:03:03;;;;;;;21.52;9.23;;;10.80;99.90;;;;;;4993833;28;20101;-47
2023/10/05 03:05:32;;;;;;;19.23;8.07;;;10.70;99.90;;;;;;4994579;28;20393;-47
2023/10/05 03:07:58;;;;;;;16.08;8.88;;;10.80;99.90;;;;;;4995095;28;20033;-46
2023/10/05 03:10:24;;;;;;;21.70;9.25;;;10.80;99.90;;;;;;4994665;28;20022;-43
2023/10/05 03:12:49;;;;;;;19.15;8.38;;;10.80;99.90;;;;;;4994702;28;20040;-46
2023/10/05 03:15:15;;;;;;;19.65;8.40;;;10.80;99.90;;;;;;4994429;28;20490;-47
2023/10/05 03:17:40;;;;;;;15.20;8.75;;;10.80;99.90;;;;;;4994837;28;20105;-46
2023/10/05 03:20:15;;;;;;;15.70;8.90;;;10.70;99.90;;;;;;4994625;28;20034;-49
2023/10/05 03:22:40;;;;;;;20.15;9.32;;;10.70;99.90;;;;;;4994436;28;20506;-47
2023/10/05 03:25:06;;;;;;;19.42;8.52;;;10.70;99.90;;;;;;4994415;28;20105;-48
2023/10/05 03:27:32;;;;;;;21.65;9.55;;;10.70;99.90;;;;;;4994879;28;20030;-53
2023/10/05 03:30:06;;;;;;;15.27;8.27;;;10.70;99.90;;;;;;4994551;28;20030;-49
2023/10/05 03:32:31;;;;;;;20.38;8.82;;;10.70;99.90;;;;;;4994202;28;20096;-47
2023/10/05 03:34:57;;;;;;;13.55;7.85;;;10.80;99.90;;;;;;4994124;28;20023;-48
2023/10/05 03:37:22;;;;;;;22.42;8.90;;;10.80;99.90;;;;;;4994133;28;20054;-47
2023/10/05 03:40:06;;;;;;;15.23;8.93;;;10.80;99.90;;;;;;4994209;28;20109;-47
2023/10/05 03:42:32;;;;;;;25.70;7.95;;;10.80;99.90;;;;;;4993767;28;20486;-48
2023/10/05 03:45:03;;;;;;;17.73;8.00;;;10.80;99.90;;;;;;4993831;28;20050;-49
2023/10/05 03:47:28;;;;;;;19.92;8.27;;;10.80;99.90;;;;;;4994355;28;20509;-47
2023/10/05 03:49:57;;;;;;;14.60;7.82;;;10.80;99.90;;;;;;4994915;28;20034;-50
2023/10/05 03:52:29;;;;;;;22.80;8.98;;;10.70;99.90;;;;;;4994014;28;20038;-46
2023/10/05 03:55:09;;;;;;;20.73;8.52;;;10.70;99.90;;;;;;4994082;28;20022;-51
2023/10/05 03:57:35;;;;;;;20.17;8.20;;;10.60;99.90;;;;;;4993873;28;20026;-47
2023/10/05 04:00:16;;;;;;;16.35;8.63;;;10.60;99.90;;;;;;4994050;28;20524;-48
2023/10/05 04:02:43;;;;;;;19.00;9.18;;;10.60;99.90;;;;;;4993698;28;20026;-49
2023/10/05 04:05:10;;;;;;;17.38;8.50;;;10.50;99.90;;;;;;4993616;28;20510;-49
2023/10/05 04:07:36;;;;;;;18.25;8.70;;;10.50;99.90;;;;;;4992252;28;20031;-48
2023/10/05 04:10:03;;;;;;;22.80;9.63;;;10.40;99.90;;;;;;4993735;28;20398;-50
2023/10/05 04:12:32;;;;;;;18.98;9.13;;;10.50;99.90;;;;;;4993218;28;20490;-47
2023/10/05 04:15:00;;;;;;;17.00;8.45;;;10.50;99.90;;;;;;4993349;28;20034;-47
2023/10/05 04:17:26;;;;;;;19.00;9.55;;;10.50;99.90;;;;;;4993402;28;20069;-46
2023/10/05 04:19:52;;;;;;;17.70;8.65;;;10.50;99.90;;;;;;4993338;28;20032;-47
2023/10/05 04:22:18;;;;;;;20.83;9.27;;;10.50;99.90;;;;;;4993062;28;20030;-47
2023/10/05 04:24:44;;;;;;;17.63;9.27;;;10.50;99.90;;;;;;4992951;28;20109;-46
2023/10/05 04:27:10;;;;;;;15.32;8.63;;;10.50;99.90;;;;;;4993274;28;20028;-48
2023/10/05 04:29:37;;;;;;;19.25;8.93;;;10.50;99.90;;;;;;4993484;28;20022;-46
2023/10/05 04:32:03;;;;;;;21.55;9.43;;;10.40;99.90;;;;;;4992935;28;20566;-46
2023/10/05 04:34:31;;;;;;;21.92;8.90;;;10.50;99.90;;;;;;4992773;28;20033;-46
2023/10/05 04:36:57;;;;;;;17.73;8.77;;;10.50;99.90;;;;;;4993319;28;20026;-47
2023/10/05 04:39:28;;;;;;;21.73;8.50;;;10.50;99.90;;;;;;4993061;28;20022;-47
2023/10/05 04:41:55;;;;;;;20.00;8.65;;;10.50;99.90;;;;;;4992886;28;20025;-46
2023/10/05 04:44:20;;;;;;;14.07;7.88;;;10.50;99.90;;;;;;4993110;28;20097;-49
2023/10/05 04:46:49;;;;;;;17.20;7.95;;;10.50;99.90;;;;;;4992685;28;20105;-51
2023/10/05 04:49:16;;;;;;;19.20;9.20;;;10.50;99.90;;;;;;4993121;28;20026;-50
2023/10/05 04:51:43;;;;;;;16.05;7.90;;;10.50;99.90;;;;;;4992623;28;20034;-49
2023/10/05 04:54:12;;;;;;;14.65;8.38;;;10.50;99.90;;;;;;4992711;28;20105;-50
2023/10/05 05:01:56;;;;;;;20.70;8.18;;;10.50;99.90;;;;;;4992616;28;20390;-47
2023/10/05 05:07:06;;;;;;;14.68;7.65;;;10.50;99.90;;;;;;4992759;28;20038;-50
2023/10/05 05:09:35;;;;;;;13.23;7.82;;;10.50;99.90;;;;;;4992548;28;20030;-51
2023/10/05 05:12:05;;;;;;;16.33;8.75;;;10.50;99.90;;;;;;4992439;28;20034;-50
2023/10/05 05:14:41;;;;;;;13.25;7.88;;;10.50;99.90;;;;;;4992300;28;20033;-47
2023/10/05 05:17:10;;;;;;;19.27;8.02;;;10.50;99.90;;;;;;4992525;28;20030;-47
2023/10/05 05:19:39;;;;;;;15.77;8.27;;;10.50;99.90;;;;;;4992384;28;20117;-53
2023/10/05 05:22:07;;;;;;;13.70;8.32;;;10.50;99.90;;;;;;4992214;28;20050;-51
2023/10/05 05:24:33;;;;;;;15.85;9.10;;;10.60;99.90;;;;;;4991654;28;20022;-48
2023/10/05 05:29:44;;;;;;;15.88;7.82;;;10.60;99.90;;;;;;4992355;28;20026;-51
2023/10/05 05:32:10;;;;;;;16.23;8.32;;;10.70;99.90;;;;;;4992097;28;20041;-47
2023/10/05 05:34:41;;;;;;;14.18;7.70;;;10.70;99.90;;;;;;4991919;28;20406;-48
2023/10/05 05:37:08;;;;;;;16.65;8.00;;;10.70;99.90;;;;;;4992126;28;20023;-50
2023/10/05 05:39:39;;;;;;;16.85;8.32;;;10.70;99.90;;;;;;4992075;28;20030;-49
2023/10/05 05:42:07;;;;;;;15.48;7.38;;;10.80;99.90;;;;;;4992391;28;20027;-52
2023/10/05 05:44:35;;;;;;;17.75;8.20;;;10.80;99.90;;;;;;4990341;28;20038;-49
2023/10/05 05:47:09;;;;;;;19.00;7.85;;;10.80;99.90;;;;;;4992074;28;20027;-48
2023/10/05 05:49:34;;;;;;;17.08;8.52;;;10.80;99.90;;;;;;4992057;28;20026;-50
2023/10/05 05:52:00;;;;;;;12.02;7.80;;;10.80;99.90;;;;;;4991849;28;20045;-47
2023/10/05 05:54:31;;;;;;;12.60;7.57;;;10.80;99.90;;;;;;4991713;28;20037;-48
2023/10/05 05:56:57;;;;;;;14.52;7.40;;;10.80;99.90;;;;;;4992015;28;20018;-52
2023/10/05 05:59:22;;;;;;;16.55;8.07;;;10.80;99.90;;;;;;4990538;28;20026;-49
2023/10/05 06:01:50;;;;;;;16.23;7.60;;;10.80;99.90;;;;;;4991853;28;20030;-47
2023/10/05 06:04:16;;;;;;;19.63;8.13;;;10.80;99.90;;;;;;4991819;28;20026;-47
2023/10/05 06:06:42;;;;;;;15.18;7.07;;;10.80;99.90;;;;;;4991740;28;20383;-47
2023/10/05 06:09:10;;;;;;;19.10;7.35;;;10.80;99.90;;;;;;4991896;28;20030;-45
2023/10/05 06:11:36;;;;;;;18.23;7.55;;;10.70;99.90;;;;;;4991767;28;20018;-45
2023/10/05 06:14:04;;;;;;;25.23;7.85;;;10.80;99.90;;;;;;4991723;28;20398;-48
2023/10/05 06:16:33;;;;;;;15.10;7.65;;;10.80;99.90;;;;;;4991655;28;20042;-49
2023/10/05 06:18:59;;;;;;;24.67;8.30;;;10.70;99.90;;;;;;4991960;28;20037;-45
2023/10/05 06:21:25;;;;;;;23.73;7.63;;;10.70;99.90;;;;;;4991656;28;20018;-47
2023/10/05 06:23:51;;;;;;;13.85;7.63;;;10.70;99.90;;;;;;4991987;28;20025;-45
2023/10/05 06:26:16;;;;;;;15.93;7.97;;;10.80;99.90;;;;;;4990933;28;20048;-46
2023/10/05 06:28:42;;;;;;;15.02;7.70;;;10.80;99.90;;;;;;4992396;28;20022;-49
2023/10/05 06:31:11;;;;;;;14.18;7.78;;;10.80;99.90;;;;;;4992420;28;20089;-46
2023/10/05 06:33:38;;;;;;;17.00;8.90;;;10.90;99.90;;;;;;4991545;28;20026;-49
2023/10/05 06:36:03;;;;;;;13.90;7.43;;;10.90;99.90;;;;;;4991407;28;20469;-47
2023/10/05 06:38:29;;;;;;;15.35;8.60;;;10.90;99.90;;;;;;4994717;28;20105;-47
2023/10/05 06:40:55;;;;;;;13.88;7.05;;;11.00;99.90;;;;;;4994791;28;20018;-47
2023/10/05 06:43:21;;;;;;;11.65;7.13;;;11.00;99.90;;;;;;4995138;28;20030;-47
2023/10/05 06:45:48;;;;;;;14.68;7.35;;;11.00;99.90;;;;;;4994935;28;20093;-47
2023/10/05 06:48:14;;;;;;;13.88;7.70;;;11.10;99.90;;;;;;4995193;28;20050;-46
2023/10/05 06:50:40;;;;;;;13.55;8.48;;;11.10;99.90;;;;;;4994954;28;20524;-48
2023/10/05 06:53:07;;;;;;;17.60;8.18;;;11.20;99.90;;;;;;5031796;23;20124;-49
2023/10/05 06:55:32;;;;;;;12.13;7.00;;;11.20;99.90;;;;;;5014103;28;20022;-46
2023/10/05 06:57:58;;;;;;;14.43;7.05;;;11.30;99.90;;;;;;5014564;28;20401;-47
2023/10/05 07:00:25;;;;;;;13.45;6.50;;;11.40;99.90;;;;;;5014442;28;20036;-49
2023/10/05 07:02:58;;;;;;;11.85;7.60;;;11.50;99.90;;;;;;5013150;28;20053;-49
2023/10/05 07:05:25;;;;;;;16.95;7.55;;;11.60;99.90;;;;;;5014687;28;20430;-48
2023/10/05 07:07:51;;;;;;;13.07;7.13;;;11.70;99.90;;;;;;5014485;28;20026;-45
2023/10/05 07:10:17;;;;;;;13.77;6.90;;;11.70;99.90;;;;;;5014182;28;20030;-47
2023/10/05 07:12:46;;;;;;;17.42;6.85;;;11.80;99.90;;;;;;5013955;28;20628;-46
2023/10/05 07:15:20;;;;;;;13.98;6.95;;;11.90;99.90;;;;;;5013875;28;20034;-50
2023/10/05 07:17:48;;;;;;;17.52;7.47;;;11.90;99.90;;;;;;5013298;28;20033;-51
2023/10/05 07:20:16;;;;;;;15.52;6.45;;;11.90;99.90;;;;;;5014026;28;20022;-49
2023/10/05 07:22:43;;;;;;;13.77;6.00;;;11.90;99.90;;;;;;5012494;28;20022;-53
2023/10/05 07:25:10;;;;;;;11.52;6.70;;;12.00;99.90;;;;;;5013915;28;20030;-44
2023/10/05 07:27:36;;;;;;;13.57;7.00;;;12.00;99.90;;;;;;5014063;28;20038;-47
2023/10/05 07:30:03;;;;;;;14.18;6.57;;;12.10;99.90;;;;;;5012840;28;20030;-50
2023/10/05 07:32:30;;;;;;;15.88;6.68;;;12.20;99.90;;;;;;5013801;28;20405;-47
2023/10/05 07:34:56;;;;;;;13.60;6.38;;;12.20;99.90;;;;;;5013645;28;20028;-51
2023/10/05 07:37:21;;;;;;;13.02;6.28;;;12.30;99.90;;;;;;5014014;28;20105;-46
2023/10/05 07:39:50;;;;;;;16.58;6.10;;;12.30;99.90;;;;;;5013944;28;20076;-45
2023/10/05 07:42:16;;;;;;;12.95;7.05;;;12.40;99.90;;;;;;5013620;28;20025;-49
2023/10/05 07:44:43;;;;;;;14.68;7.07;;;12.50;99.90;;;;;;5013887;28;20359;-47
2023/10/05 07:47:11;;;;;;;15.32;7.10;;;12.60;99.90;;;;;;5013666;28;20025;-49
2023/10/05 07:49:37;;;;;;;12.15;6.43;;;12.80;99.90;;;;;;5013291;28;20026;-52
2023/10/05 07:52:07;;;;;;;18.33;6.30;;;12.80;99.90;;;;;;5013371;28;20038;-47
2023/10/05 07:54:34;;;;;;;9.73;6.03;;;12.90;99.90;;;;;;5013257;28;20504;-47
2023/10/05 07:57:01;;;;;;;15.77;6.95;;;13.00;99.90;;;;;;5013567;28;20486;-47
2023/10/05 07:59:27;;;;;;;14.10;6.10;;;13.10;99.90;;;;;;5013387;28;20045;-48
2023/10/05 08:01:52;;;;;;;15.90;6.72;;;13.30;99.90;;;;;;5013254;28;20025;-46
2023/10/05 08:04:19;;;;;;;12.50;6.28;;;13.40;99.90;;;;;;5013339;28;20032;-46
2023/10/05 08:06:45;;;;;;;22.05;7.00;;;13.50;99.90;;;;;;5013193;28;20045;-45
2023/10/05 08:09:15;;;;;;;15.20;6.63;;;13.50;99.90;;;;;;5013338;28;20092;-46
2023/10/05 08:11:42;;;;;;;18.38;7.03;;;13.60;99.90;;;;;;5013115;28;20025;-46
2023/10/05 08:14:07;;;;;;;11.73;6.95;;;13.70;99.90;;;;;;5013075;28;20022;-51
2023/10/05 08:16:36;;;;;;;9.30;6.22;;;13.70;99.90;;;;;;5011742;28;20057;-46
2023/10/05 08:19:01;;;;;;;12.38;6.15;;;13.80;99.90;;;;;;5013157;28;20048;-48
2023/10/05 08:21:27;;;;;;;16.55;7.00;;;13.80;99.90;;;;;;5012803;28;20030;-48
2023/10/05 08:23:52;;;;;;;10.15;5.57;;;13.80;99.90;;;;;;5013060;28;20030;-47
2023/10/05 08:26:18;;;;;;;13.05;6.60;;;13.80;99.90;;;;;;5012734;28;20398;-51
2023/10/05 08:28:49;;;;;;;11.43;6.43;;;13.80;99.90;;;;;;5012868;28;20033;-48
2023/10/05 08:31:15;;;;;;;17.63;7.03;;;13.80;99.90;;;;;;5012981;28;20045;-47
2023/10/05 08:33:41;;;;;;;15.88;6.50;;;13.90;99.90;;;;;;5012681;28;20049;-47
2023/10/05 08:36:14;;;;;;;11.00;6.00;;;14.00;99.90;;;;;;5012761;28;20425;-44
2023/10/05 08:38:40;;;;;;;13.13;6.03;;;14.10;99.90;;;;;;5012789;28;20064;-46
2023/10/05 08:41:11;;;;;;;13.38;6.22;;;14.30;99.90;;;;;;5012494;28;20104;-47
2023/10/05 08:43:40;;;;;;;10.35;5.65;;;14.40;99.90;;;;;;5012752;28;20485;-48
2023/10/05 08:46:14;;;;;;;16.60;6.70;;;14.50;99.90;;;;;;5012545;28;20034;-49
2023/10/05 08:48:41;;;;;;;14.70;5.60;;;14.60;99.90;;;;;;5012632;28;20436;-45
2023/10/05 08:51:10;;;;;;;14.35;5.97;;;14.80;99.90;;;;;;5012537;28;20370;-47
2023/10/05 08:53:48;;;;;;;14.35;6.20;;;14.90;99.90;;;;;;5012870;28;20037;-46
2023/10/05 08:56:15;;;;;;;18.75;6.28;;;15.10;99.90;;;;;;5012554;28;20025;-49
2023/10/05 08:58:48;;;;;;;10.98;5.43;;;15.30;99.90;;;;;;5012533;28;20061;-49
2023/10/05 09:01:24;;;;;;;12.55;6.20;;;15.50;99.90;;;;;;5011721;28;20029;-49
2023/10/05 09:04:01;;;;;;;12.95;5.72;;;15.80;99.90;;;;;;5012682;28;20092;-47
2023/10/05 09:06:27;;;;;;;12.80;5.90;;;16.40;99.90;;;;;;5012738;28;20025;-51
2023/10/05 09:09:01;;;;;;;14.93;6.13;;;16.90;99.90;;;;;;5012621;28;20080;-48
2023/10/05 09:11:31;;;;;;;12.80;5.53;;;17.50;99.90;;;;;;5012709;28;20026;-52
2023/10/05 09:13:58;;;;;;;11.25;5.18;;;18.00;99.90;;;;;;5012629;28;20501;-44
2023/10/05 09:16:32;;;;;;;15.55;5.55;;;18.20;99.90;;;;;;5012338;28;20580;-51
2023/10/05 09:19:00;;;;;;;13.25;6.18;;;18.30;99.90;;;;;;5012311;28;20061;-49
2023/10/05 09:21:44;;;;;;;16.23;7.22;;;18.50;99.90;;;;;;5011022;28;20113;-50
2023/10/05 09:24:20;;;;;;;14.90;5.75;;;18.60;99.90;;;;;;5012185;28;20021;-49
2023/10/05 09:27:15;;;;;;;18.38;6.13;;;18.80;99.90;;;;;;5012056;28;20109;-47
2023/10/05 09:29:43;;;;;;;13.05;5.45;;;18.80;99.90;;;;;;5012159;28;20037;-47
2023/10/05 09:32:30;;;;;;;13.27;6.60;;;18.80;99.90;;;;;;5011701;28;20136;-48
2023/10/05 09:34:56;;;;;;;11.88;5.43;;;18.20;99.90;;;;;;5011928;28;20025;-50
2023/10/05 09:37:26;;;;;;;13.13;5.90;;;18.00;99.90;;;;;;5012082;28;20026;-46
2023/10/05 09:39:59;;;;;;;13.52;5.82;;;17.70;99.90;;;;;;5010941;28;20054;-47
2023/10/05 09:42:27;;;;;;;16.00;6.47;;;17.50;99.90;;;;;;5011661;28;20025;-48
2023/10/05 09:44:57;;;;;;;10.70;5.80;;;17.40;99.90;;;;;;5011454;28;20425;-50
2023/10/05 09:47:33;;;;;;;14.90;5.53;;;17.30;99.90;;;;;;5011759;28;20022;-50
2023/10/05 09:50:00;;;;;;;14.18;5.82;;;17.30;99.90;;;;;;5011950;28;20174;-50
2023/10/05 09:52:36;;;;;;;13.90;5.85;;;17.20;99.90;;;;;;5011437;28;20494;-48
2023/10/05 09:55:06;;;;;;;14.18;6.18;;;17.20;99.90;;;;;;5011277;28;20030;-52
2023/10/05 09:57:40;;;;;;;13.25;5.82;;;17.00;99.90;;;;;;5011721;28;20098;-51
2023/10/05 10:00:11;;;;;;;25.25;7.07;;;17.00;99.90;;;;;;5011987;28;20030;-46
2023/10/05 10:02:40;;;;;;;17.25;4.82;;;16.90;99.90;;;;;;5011744;28;20048;-48
2023/10/05 10:05:29;;;;;;;17.27;6.00;;;16.80;99.90;;;;;;5010137;28;20084;-51
2023/10/05 10:08:20;;;;;;;14.63;5.45;;;16.80;99.90;;;;;;5011791;28;20030;-47
2023/10/05 10:10:51;;;;;;;14.20;5.28;;;16.80;99.90;;;;;;5011947;28;20032;-47
2023/10/05 10:13:21;;;;;;;12.88;5.35;;;16.80;99.90;;;;;;5015209;28;20476;-46
2023/10/05 10:15:53;;;;;;;17.00;5.88;;;16.90;99.90;;;;;;5014823;28;20022;-48
2023/10/05 10:18:30;;;;;;;13.32;5.45;;;16.80;99.90;;;;;;5015400;28;20390;-47
2023/10/05 10:20:57;;;;;;;12.18;5.18;;;16.90;99.90;;;;;;5015335;28;20421;-53
2023/10/05 10:23:27;;;;;;;12.00;5.15;;;16.80;99.90;;;;;;5015483;28;20064;-49
2023/10/05 10:26:16;;;;;;;9.95;4.93;;;16.80;99.90;;;;;;5015256;28;20466;-51
2023/10/05 10:28:56;;;;;;;17.27;6.65;;;16.90;99.90;;;;;;5015695;28;20032;-46
2023/10/05 10:31:29;;;;;;;13.02;5.30;;;16.80;99.90;;;;;;5015328;28;20022;-48
2023/10/05 10:33:56;;;;;;;12.98;4.75;;;16.70;99.90;;;;;;5015296;28;20037;-46
2023/10/05 10:36:43;;;;;;;14.00;5.35;;;16.80;99.90;;;;;;5015196;28;20080;-51
2023/10/05 10:39:27;;;;;;;14.40;5.00;;;16.80;99.90;;;;;;5015037;28;20148;-49
2023/10/05 10:42:19;;;;;;;9.95;4.22;;;16.80;99.90;;;;;;5013606;28;20053;-48
2023/10/05 10:47:16;;;;;;;15.75;4.45;;;16.90;99.90;;;;;;5015217;28;20078;-48
2023/10/05 10:50:10;;;;;;;11.40;3.60;;;16.90;99.90;;;;;;5013628;28;20026;-47
2023/10/05 10:52:36;;;;;;;12.10;5.07;;;16.90;99.90;;;;;;5014666;28;20121;-46
2023/10/05 10:55:03;;;;;;;9.48;2.55;;;16.80;99.90;;;;;;5014354;28;20097;-48
2023/10/05 10:57:28;;;;;;;12.00;2.60;;;16.90;99.90;;;;;;5014745;28;20080;-44
2023/10/05 11:00:43;;;;;;;7.45;2.92;;;16.80;99.90;;;;;;5014609;28;20057;-48
2023/10/05 11:02:42;;;;;;;6.20;3.15;;;16.80;99.90;;;;;;5014904;28;20036;-53
2023/10/05 11:05:15;;;;;;;7.88;3.10;;;16.90;99.90;;;;;;5013578;28;20038;-49
2023/10/05 11:07:42;;;;;;;7.18;2.85;;;16.90;99.90;;;;;;5014522;28;20052;-50
2023/10/05 11:10:20;;;;;;;7.40;2.92;;;16.90;99.90;;;;;;5014364;28;20030;-49
2023/10/05 11:12:57;;;;;;;9.93;2.90;;;16.90;99.90;;;;;;4994752;28;20033;-48
2023/10/05 11:15:30;;;;;;;5.65;2.83;;;16.90;99.90;;;;;;4994623;28;20521;-48
2023/10/05 11:18:00;;;;;;;7.10;3.00;;;16.90;99.90;;;;;;4994641;28;20029;-49
2023/10/05 11:20:33;;;;;;;8.90;3.15;;;16.80;99.90;;;;;;4994544;28;20105;-48
2023/10/05 11:23:03;;;;;;;9.25;3.05;;;16.80;99.90;;;;;;4993727;28;20050;-52
2023/10/05 11:25:34;;;;;;;7.68;2.60;;;16.80;99.90;;;;;;4994541;28;20018;-47
2023/10/05 11:28:00;;;;;;;9.32;2.67;;;16.70;99.90;;;;;;4994795;28;20410;-46
2023/10/05 11:30:47;;;;;;;8.80;3.05;;;16.70;99.90;;;;;;4994230;28;20026;-50
2023/10/05 11:33:15;;;;;;;3.55;2.25;;;16.70;99.90;;;;;;4994290;28;20026;-49
2023/10/05 11:35:48;;;;;;;5.93;2.97;;;16.70;99.90;;;;;;4994260;28;20030;-49
2023/10/05 11:38:16;;;;;;;51.17;34.40;;;16.70;99.90;;;;;;4994215;28;20022;-48
2023/10/05 11:40:53;;;;;;;22.63;10.32;;;16.70;99.90;;;;;;4993795;28;20026;-43
2023/10/05 11:43:20;;;;;;;8.88;3.90;;;16.70;99.90;;;;;;4994095;28;20026;-50
2023/10/05 11:45:56;;;;;;;6.50;2.35;;;16.70;99.90;;;;;;4994289;28;20033;-47
2023/10/05 11:48:27;;;;;;;11.35;2.95;;;16.70;99.90;;;;;;4994029;28;20030;-47
2023/10/05 11:50:52;;;;;;;6.43;2.55;;;16.60;99.90;;;;;;4994943;28;20508;-51
2023/10/05 11:53:21;;;;;;;6.63;2.20;;;16.60;99.90;;;;;;4994145;28;20031;-50
2023/10/05 11:55:50;;;;;;;10.48;2.58;;;16.50;99.90;;;;;;4993930;28;20026;-47
2023/10/05 11:58:18;;;;;;;5.75;2.38;;;16.60;99.90;;;;;;4993778;28;20025;-49
2023/10/05 12:00:44;;;;;;;8.00;2.10;;;16.60;99.90;;;;;;4993808;28;20025;-47
2023/10/05 12:03:11;;;;;;;9.35;3.50;;;16.60;99.90;;;;;;4993628;28;20024;-50
2023/10/05 12:05:38;;;;;;;9.15;2.75;;;16.50;99.90;;;;;;4993470;28;20042;-46
2023/10/05 12:08:05;;;;;;;6.65;2.17;;;16.60;99.90;;;;;;4993753;28;20022;-48
2023/10/05 12:10:32;;;;;;;9.02;2.40;;;16.60;99.90;;;;;;4993640;28;20405;-48
2023/10/05 12:13:01;;;;;;;9.02;3.38;;;16.50;99.90;;;;;;4993361;28;20030;-50
2023/10/05 12:15:28;;;;;;;8.93;2.85;;;16.50;99.90;;;;;;4993487;28;20029;-46
2023/10/05 12:17:54;;;;;;;9.38;2.80;;;16.40;99.90;;;;;;4993482;28;20398;-50
2023/10/05 12:20:20;;;;;;;4.55;3.03;;;16.40;99.90;;;;;;4993687;28;20022;-50
2023/10/05 12:22:49;;;;;;;9.05;2.38;;;16.50;99.90;;;;;;4993206;28;20039;-51
2023/10/05 12:25:16;;;;;;;9.75;3.03;;;16.50;99.90;;;;;;4991874;28;20041;-51
2023/10/05 12:27:41;;;;;;;9.25;2.33;;;16.50;99.90;;;;;;4993322;28;20490;-47
2023/10/05 12:30:11;;;;;;;7.13;3.03;;;16.50;99.90;;;;;;4993184;28;20042;-49
2023/10/05 12:32:40;;;;;;;7.43;2.40;;;16.50;99.90;;;;;;4992889;28;20026;-47
2023/10/05 12:35:07;;;;;;;7.20;2.33;;;16.60;99.90;;;;;;4992021;28;20026;-48
2023/10/05 12:37:33;;;;;;;120.78;78.53;;;16.60;99.90;;;;;;4991940;28;20041;-51
2023/10/05 12:40:17;;;;;;;39.20;25.05;;;16.60;99.90;;;;;;4992932;28;20498;-49
2023/10/05 12:42:44;;;;;;;25.10;12.75;;;16.70;99.90;;;;;;4992673;28;20045;-49
2023/10/05 12:45:11;;;;;;;10.02;3.15;;;16.70;99.90;;;;;;4992823;28;20030;-49
2023/10/05 12:47:37;;;;;;;10.48;2.20;;;16.70;99.90;;;;;;4994875;28;20033;-46
2023/10/05 12:50:03;;;;;;;4.55;1.60;;;16.70;99.90;;;;;;5012381;28;20390;-46
2023/10/05 12:52:29;;;;;;;9.27;2.45;;;16.70;99.90;;;;;;5011769;28;20288;-46
2023/10/05 12:54:56;;;;;;;6.28;1.98;;;16.70;99.90;;;;;;5030064;23;20129;-46
2023/10/05 12:57:22;;;;;;;8.85;2.53;;;16.70;99.90;;;;;;5009653;28;20493;-45
2023/10/05 12:59:48;;;;;;;4.85;2.35;;;16.70;99.90;;;;;;5011113;28;20033;-49
2023/10/05 13:02:15;;;;;;;10.93;3.05;;;16.60;99.90;;;;;;5010585;28;20033;-45
2023/10/05 13:04:42;;;;;;;2.78;1.85;;;16.70;99.90;;;;;;5011974;28;20477;-46
2023/10/05 13:07:07;;;;;;;7.07;2.60;;;16.60;99.90;;;;;;5012476;28;20029;-48
2023/10/05 13:09:34;;;;;;;12.00;2.63;;;16.60;99.90;;;;;;5012382;28;20029;-49
2023/10/05 13:12:07;;;;;;;4.78;2.08;;;16.60;99.90;;;;;;5012285;28;20045;-49